Koyo — JD2279 — position and weather

sailwx.info

Track history (hours):
 
Tides and Currents Weather Stations Pressure Air Temp Water Temp Dewpoint Dewpoint Depression Visibility Wind Speed Wind Dir Waves Ship Positions

Koyo

Last reported at 2015-Mar-04 07:04 UTC. Time now 2015-Mar-04 12:54 UTC.
Position N 34°36' E 134°54'.

Length 80 m; draft 3.6 m.

Type: Cargo ship. MMSI: 431301812.

Date/timePositionNaut miles runAvg speedWind from/ knotsBaromVisibWave heightAir tempDewpointWater temp
2015-Mar-04 07:04N 34°36' E 134°54'510.2
2015-Mar-04 06:32N 34°37' E 135°01'10 9.8
2015-Mar-04 05:33N 34°36' E 135°12'1010.5
2015-Mar-04 04:33N 34°38' E 135°25'0 0.1
2015-Mar-04 03:33N 34°38' E 135°25'7 7.3
2015-Mar-04 02:33N 34°39' E 135°16'2 1.6
2015-Mar-04 01:33N 34°40' E 135°14'1 0.9
2015-Mar-04 00:31N 34°39' E 135°15'0 0.0
2015-Mar-03 23:31N 34°39' E 135°15'7 7.3
2015-Mar-03 22:34N 34°34' E 135°09'7 6.5
2015-Mar-03 21:33N 34°37' E 135°02'9 8.7
2015-Mar-03 20:33N 34°34' E 134°52'1 0.0
2015-Mar-02 03:06N 34°35' E 134°51'610.5
2015-Mar-02 02:33N 34°37' E 134°58'1010.4
2015-Mar-02 01:33N 34°37' E 135°10'4 4.4
2015-Mar-02 00:33N 34°39' E 135°14'0 0.0
2015-Mar-01 23:33N 34°39' E 135°14'2 1.9
2015-Mar-01 22:22N 34°41' E 135°12'0 0.0
2015-Mar-01 21:28N 34°41' E 135°12'0 0.0
2015-Mar-01 20:28N 34°41' E 135°12'0 0.0
2015-Mar-01 19:28N 34°41' E 135°12'0 0.0
2015-Mar-01 18:28N 34°41' E 135°12'0 0.0
2015-Mar-01 17:28N 34°41' E 135°12'0 0.0
2015-Mar-01 16:28N 34°41' E 135°12'0 0.0
2015-Mar-01 15:28N 34°41' E 135°12'0 0.0
2015-Mar-01 14:28N 34°41' E 135°12'0 0.0
2015-Mar-01 13:28N 34°41' E 135°12'0 0.0
2015-Mar-01 12:28N 34°41' E 135°12'0 0.0
2015-Mar-01 11:22N 34°41' E 135°12'0 0.0
2015-Mar-01 10:22N 34°41' E 135°12'0 0.0
2015-Mar-01 09:28N 34°41' E 135°12'0 0.0
2015-Mar-01 08:28N 34°41' E 135°12'0 0.0
2015-Mar-01 07:22N 34°41' E 135°12'0 0.0
2015-Mar-01 06:28N 34°41' E 135°12'0 0.0
2015-Mar-01 05:28N 34°41' E 135°12'0 0.0
2015-Mar-01 04:22N 34°41' E 135°12'0 0.0
2015-Mar-01 03:28N 34°41' E 135°12'0 0.0
2015-Mar-01 02:28N 34°41' E 135°12'0 0.0
2015-Mar-01 01:28N 34°41' E 135°12'0 0.0
2015-Mar-01 00:28N 34°41' E 135°12'0 0.0
2015-Feb-28 23:28N 34°41' E 135°12'0 0.0
2015-Feb-28 22:22N 34°41' E 135°12'0 0.0
2015-Feb-28 21:22N 34°41' E 135°12'0 0.4
2015-Feb-28 20:33N 34°41' E 135°13'6 5.7
2015-Feb-28 19:33N 34°36' E 135°10'9 9.0
2015-Feb-28 18:32N 34°37' E 134°59'1111.0
2015-Feb-28 17:33N 34°32' E 134°47'2 0.1
2015-Feb-27 11:21N 34°34' E 134°48'911.9
2015-Feb-27 10:33N 34°37' E 134°59'1211.7
2015-Feb-27 09:33N 34°37' E 135°13'2 2.4
2015-Feb-27 08:33N 34°39' E 135°14'0 0.0
2015-Feb-27 07:33N 34°39' E 135°15'0 0.0
2015-Feb-27 06:33N 34°39' E 135°14'1 0.8
2015-Feb-27 05:33N 34°39' E 135°15'0 0.0
2015-Feb-27 04:26N 34°39' E 135°15'0 0.1
2015-Feb-27 03:32N 34°39' E 135°15'0 0.0
2015-Feb-27 02:32N 34°39' E 135°15'0 0.0
2015-Feb-27 01:26N 34°39' E 135°15'3 3.1
2015-Feb-27 00:33N 34°37' E 135°13'1211.4
2015-Feb-26 23:31N 34°37' E 134°58'6 0.2
2015-Feb-25 11:24N 34°35' E 134°51'910.4
2015-Feb-25 10:33N 34°37' E 135°01'1111.2
2015-Feb-25 09:33N 34°36' E 135°15'8 8.1
2015-Feb-25 08:31N 34°38' E 135°25'2 1.7
2015-Feb-25 07:33N 34°38' E 135°23'7 7.3
2015-Feb-25 06:33N 34°40' E 135°14'0 0.1
2015-Feb-25 05:33N 34°39' E 135°15'1 0.6
2015-Feb-25 04:23N 34°39' E 135°15'0 0.1
2015-Feb-25 03:23N 34°39' E 135°15'0 0.0
2015-Feb-25 02:29N 34°39' E 135°15'0 0.0
2015-Feb-25 01:11N 34°39' E 135°15'2 2.5
2015-Feb-25 00:33N 34°37' E 135°14'1010.5
2015-Feb-24 23:33N 34°37' E 135°01'9 0.2
2015-Feb-23 06:18N 34°35' E 134°51'810.2
2015-Feb-23 05:33N 34°38' E 134°60'1010.5
2015-Feb-23 04:33N 34°35' E 135°12'1110.7
2015-Feb-23 03:33N 34°32' E 135°24'0 0.0
2015-Feb-23 02:04N 34°32' E 135°24'0 0.0
2015-Feb-23 01:33N 34°32' E 135°24'11 9.6
2015-Feb-23 00:26N 34°39' E 135°15'0 0.5
2015-Feb-22 23:33N 34°39' E 135°14'2 2.4
2015-Feb-22 22:33N 34°41' E 135°13'0 0.0
2015-Feb-22 21:28N 34°41' E 135°13'0 0.0
2015-Feb-22 20:28N 34°41' E 135°13'0 0.0
2015-Feb-22 19:28N 34°41' E 135°13'0 0.0
2015-Feb-22 18:22N 34°41' E 135°13'0 0.0
2015-Feb-22 17:28N 34°41' E 135°13'0 0.0
2015-Feb-22 16:28N 34°41' E 135°13'0 0.0
2015-Feb-22 15:28N 34°41' E 135°13'0 0.0
2015-Feb-22 14:28N 34°41' E 135°13'0 0.0
2015-Feb-22 13:22N 34°41' E 135°13'0 0.0
2015-Feb-22 12:28N 34°41' E 135°13'0 0.0
2015-Feb-22 11:28N 34°41' E 135°13'0 0.0
2015-Feb-22 10:28N 34°41' E 135°13'0 0.0
2015-Feb-22 09:24N 34°41' E 135°13'7 8.2
2015-Feb-22 08:33N 34°35' E 135°15'1312.7
2015-Feb-22 07:31N 34°24' E 135°05'  
Track history (hours):
 
Tides and Currents Weather Stations Pressure Air Temp Water Temp Dewpoint Dewpoint Depression Visibility Wind Speed Wind Dir Waves Ship Positions

Koyo

Last reported at 2015-Mar-04 07:04 UTC. Time now 2015-Mar-04 12:54 UTC.
Position N 34°36' E 134°54'.

Length 80 m; draft 3.6 m.

Type: Cargo ship. MMSI: 431301812.

Date/timePositionNaut miles runAvg speedWind from/ knotsBaromVisibWave heightAir tempDewpointWater temp
2015-Mar-04 07:04N 34°36' E 134°54'510.2
2015-Mar-04 06:32N 34°37' E 135°01'10 9.8
2015-Mar-04 05:33N 34°36' E 135°12'1010.5
2015-Mar-04 04:33N 34°38' E 135°25'0 0.1
2015-Mar-04 03:33N 34°38' E 135°25'7 7.3
2015-Mar-04 02:33N 34°39' E 135°16'2 1.6
2015-Mar-04 01:33N 34°40' E 135°14'1 0.9
2015-Mar-04 00:31N 34°39' E 135°15'0 0.0
2015-Mar-03 23:31N 34°39' E 135°15'7 7.3
2015-Mar-03 22:34N 34°34' E 135°09'7 6.5
2015-Mar-03 21:33N 34°37' E 135°02'9 8.7
2015-Mar-03 20:33N 34°34' E 134°52'1 0.0
2015-Mar-02 03:06N 34°35' E 134°51'610.5
2015-Mar-02 02:33N 34°37' E 134°58'1010.4
2015-Mar-02 01:33N 34°37' E 135°10'4 4.4
2015-Mar-02 00:33N 34°39' E 135°14'0 0.0
2015-Mar-01 23:33N 34°39' E 135°14'2 1.9
2015-Mar-01 22:22N 34°41' E 135°12'0 0.0
2015-Mar-01 21:28N 34°41' E 135°12'0 0.0
2015-Mar-01 20:28N 34°41' E 135°12'0 0.0
2015-Mar-01 19:28N 34°41' E 135°12'0 0.0
2015-Mar-01 18:28N 34°41' E 135°12'0 0.0
2015-Mar-01 17:28N 34°41' E 135°12'0 0.0
2015-Mar-01 16:28N 34°41' E 135°12'0 0.0
2015-Mar-01 15:28N 34°41' E 135°12'0 0.0
2015-Mar-01 14:28N 34°41' E 135°12'0 0.0
2015-Mar-01 13:28N 34°41' E 135°12'0 0.0
2015-Mar-01 12:28N 34°41' E 135°12'0 0.0
2015-Mar-01 11:22N 34°41' E 135°12'0 0.0
2015-Mar-01 10:22N 34°41' E 135°12'0 0.0
2015-Mar-01 09:28N 34°41' E 135°12'0 0.0
2015-Mar-01 08:28N 34°41' E 135°12'0 0.0
2015-Mar-01 07:22N 34°41' E 135°12'0 0.0
2015-Mar-01 06:28N 34°41' E 135°12'0 0.0
2015-Mar-01 05:28N 34°41' E 135°12'0 0.0
2015-Mar-01 04:22N 34°41' E 135°12'0 0.0
2015-Mar-01 03:28N 34°41' E 135°12'0 0.0
2015-Mar-01 02:28N 34°41' E 135°12'0 0.0
2015-Mar-01 01:28N 34°41' E 135°12'0 0.0
2015-Mar-01 00:28N 34°41' E 135°12'0 0.0
2015-Feb-28 23:28N 34°41' E 135°12'0 0.0
2015-Feb-28 22:22N 34°41' E 135°12'0 0.0
2015-Feb-28 21:22N 34°41' E 135°12'0 0.4
2015-Feb-28 20:33N 34°41' E 135°13'6 5.7
2015-Feb-28 19:33N 34°36' E 135°10'9 9.0
2015-Feb-28 18:32N 34°37' E 134°59'1111.0
2015-Feb-28 17:33N 34°32' E 134°47'2 0.1
2015-Feb-27 11:21N 34°34' E 134°48'911.9
2015-Feb-27 10:33N 34°37' E 134°59'1211.7
2015-Feb-27 09:33N 34°37' E 135°13'2 2.4
2015-Feb-27 08:33N 34°39' E 135°14'0 0.0
2015-Feb-27 07:33N 34°39' E 135°15'0 0.0
2015-Feb-27 06:33N 34°39' E 135°14'1 0.8
2015-Feb-27 05:33N 34°39' E 135°15'0 0.0
2015-Feb-27 04:26N 34°39' E 135°15'0 0.1
2015-Feb-27 03:32N 34°39' E 135°15'0 0.0
2015-Feb-27 02:32N 34°39' E 135°15'0 0.0
2015-Feb-27 01:26N 34°39' E 135°15'3 3.1
2015-Feb-27 00:33N 34°37' E 135°13'1211.4
2015-Feb-26 23:31N 34°37' E 134°58'6 0.2
2015-Feb-25 11:24N 34°35' E 134°51'910.4
2015-Feb-25 10:33N 34°37' E 135°01'1111.2
2015-Feb-25 09:33N 34°36' E 135°15'8 8.1
2015-Feb-25 08:31N 34°38' E 135°25'2 1.7
2015-Feb-25 07:33N 34°38' E 135°23'7 7.3
2015-Feb-25 06:33N 34°40' E 135°14'0 0.1
2015-Feb-25 05:33N 34°39' E 135°15'1 0.6
2015-Feb-25 04:23N 34°39' E 135°15'0 0.1
2015-Feb-25 03:23N 34°39' E 135°15'0 0.0
2015-Feb-25 02:29N 34°39' E 135°15'0 0.0
2015-Feb-25 01:11N 34°39' E 135°15'2 2.5
2015-Feb-25 00:33N 34°37' E 135°14'1010.5
2015-Feb-24 23:33N 34°37' E 135°01'9 0.2
2015-Feb-23 06:18N 34°35' E 134°51'810.2
2015-Feb-23 05:33N 34°38' E 134°60'1010.5
2015-Feb-23 04:33N 34°35' E 135°12'1110.7
2015-Feb-23 03:33N 34°32' E 135°24'0 0.0
2015-Feb-23 02:04N 34°32' E 135°24'0 0.0
2015-Feb-23 01:33N 34°32' E 135°24'11 9.6
2015-Feb-23 00:26N 34°39' E 135°15'0 0.5
2015-Feb-22 23:33N 34°39' E 135°14'2 2.4
2015-Feb-22 22:33N 34°41' E 135°13'0 0.0
2015-Feb-22 21:28N 34°41' E 135°13'0 0.0
2015-Feb-22 20:28N 34°41' E 135°13'0 0.0
2015-Feb-22 19:28N 34°41' E 135°13'0 0.0
2015-Feb-22 18:22N 34°41' E 135°13'0 0.0
2015-Feb-22 17:28N 34°41' E 135°13'0 0.0
2015-Feb-22 16:28N 34°41' E 135°13'0 0.0
2015-Feb-22 15:28N 34°41' E 135°13'0 0.0
2015-Feb-22 14:28N 34°41' E 135°13'0 0.0
2015-Feb-22 13:22N 34°41' E 135°13'0 0.0
2015-Feb-22 12:28N 34°41' E 135°13'0 0.0
2015-Feb-22 11:28N 34°41' E 135°13'0 0.0
2015-Feb-22 10:28N 34°41' E 135°13'0 0.0
2015-Feb-22 09:24N 34°41' E 135°13'7 8.2
2015-Feb-22 08:33N 34°35' E 135°15'1312.7
2015-Feb-22 07:31N 34°24' E 135°05'  

Dump ship's entire track history